Don Mueang International Airport
VTBD : now visible

Airfield :











YOU CAN JOIN US ON...

 
LOGIN :

Register | Disclaimer

   EN    FR    IT 

 









Legend :    VFR   Marginal VFR   IFR   Intensive IFR   Very Intensive IFR
Visi :
Ceiling :
>= 8 km
>= 3000ft
5 to 8 km
1000 to 3000 ft
1500m to 5 km
500 to 1000 ft
800 to 1500m
200 to 500 ft
< 800m
< 200 ft
Symbols :   Thunderstorms  Fog  Heavy snow  Heavy precipitations  Wind > 20 kt







- Airport Elevation : 9 ft
- IATA code : DMK


VTBD - Don Mueang International

CURRENT METAR :
  • 271230Z 24009KT 9999 -RA FEW020 SCT035 27/23 Q1006 NOSIG

EXPIRED METARs :
  • 271200Z 25007KT 9999 -RA FEW020 SCT035 26/23 Q1006 NOSIG
  • 271130Z 25007KT 210V270 9999 -RA FEW020 SCT035 26/23 Q1005 NOSIG
  • 271100Z 25009KT 9999 FEW018 SCT030 26/23 Q1005 NOSIG
  • 271030Z 26008KT 230V310 9999 FEW018 SCT030 26/24 Q1005 NOSIG
  • 271000Z 27011KT 7000 -RA FEW018CB SCT030 25/25 Q1006 RERA NOSIG

TAF TAF VTBD
Valid from the 27 at 12:00 until the 28 at 18:00 UTC


271100Z 2712/2818 22008KT 9000 FEW020
BECMG 2720/2722 28005KT
BECMG 2801/2803 22008KT
TEMPO 2807/2813 25010G25KT 5000 TSRA FEW018CB SCT030 BKN100
VTBB FIR / Asia



MET'MAP, your aeronautical weather chart ! - Copyright ORBIFLY December 2007 - Disclaimer

ORBIFLY MET'MAP TEAM :

Programming & Development : Alexandra Zaïnal
Concept & Development : Baudouin d'Aumeries
Co-Development & Prog : Marc-Olivier Méhu
Technical & hardware support : Manuel Goepfert

Contact : metmap@orbifly.com




SOURCES & CREDITS :

   NOAA       Earth
Advisory